Wednesday, October 22, 2014, 7:01 PM EDT

KW99, Petersburg, Grant County Airport

Location: Petersburg, WV, United States Lat: 38.983
Local Time: 7:01 PM EDT (23:01 GMT) Lon: -79.133
Time Zone: US/Eastern Elev: 961 ft

Show me the last for .
Show Decoded

2014-10-22 18:35 METAR KW99 222235Z AUTO 35005KT 10SM OVC030 10/04 A3009 RMK AO2 LTG DSNT E
                 T01030044 =
2014-10-22 18:15 METAR KW99 222215Z AUTO 35009KT 10SM BKN030 BKN037 OVC075 11/05 A3009 RMK AO2
                 T01050046 =
2014-10-22 17:55 METAR KW99 222155Z AUTO 33007KT 10SM OVC075 11/05 A3009 RMK AO2 T01080049 =
2014-10-22 17:35 METAR KW99 222135Z AUTO 33010G14KT 10SM BKN042 OVC075 11/05 A3009 RMK AO2 LTG
                 DSNT E T01100051 =
2014-10-22 17:15 METAR KW99 222115Z AUTO 34008KT 10SM SCT032 OVC040 11/05 A3009 RMK AO2 T01130053
                 =
2014-10-22 16:55 METAR KW99 222055Z AUTO 32010G16KT 10SM SCT033 OVC040 12/05 A3009 RMK AO2
                 T01170052 =
2014-10-22 16:35 METAR KW99 222035Z AUTO 33007KT 10SM OVC038 12/05 A3009 RMK AO2 T01180052 =
2014-10-22 16:15 METAR KW99 222015Z AUTO 33005KT 10SM OVC036 12/05 A3009 RMK AO2 T01200050 =
2014-10-22 15:35 METAR KW99 221935Z AUTO 32009G18KT 10SM SCT029 BKN036 OVC043 12/05 A3009 RMK AO2
                 T01180051 =
2014-10-22 15:15 METAR KW99 221915Z AUTO 31009G14KT 10SM OVC032 12/05 A3008 RMK AO2 LTG DSNT E
                 T01170053 =
2014-10-22 14:55 METAR KW99 221855Z AUTO 30006KT 10SM OVC032 11/05 A3008 RMK AO2 LTG DSNT E
                 T01130052 =
2014-10-22 14:35 METAR KW99 221835Z AUTO 33006KT 10SM OVC032 11/05 A3008 RMK AO2 LTG DSNT E
                 T01110050 =
2014-10-22 14:15 METAR KW99 221815Z AUTO 33006KT 10SM OVC032 11/05 A3008 RMK AO2 T01100048 =
2014-10-22 13:55 METAR KW99 221755Z AUTO 31012G17KT 10SM OVC032 11/05 A3008 RMK AO2 LTG DSNT SE
                 60004 T01100048 =
2014-10-22 13:35 METAR KW99 221735Z AUTO 34012G17KT 320V020 10SM OVC033 12/05 A3008 RMK AO2
                 T01160049 =
2014-10-22 13:15 METAR KW99 221715Z AUTO 32007G15KT 10SM BKN035 OVC080 12/05 A3007 RMK AO2
                 T01180048 =
2014-10-22 12:55 METAR KW99 221655Z AUTO 34010G16KT 10SM SCT037 OVC080 13/05 A3007 RMK AO2 LTG
                 DSNT E T01260049 =
2014-10-22 12:35 METAR KW99 221635Z AUTO 33009G15KT 10SM SCT035 BKN043 OVC080 13/05 A3007 RMK AO2
                 T01280051 =
2014-10-22 12:15 METAR KW99 221615Z AUTO 34008G14KT 10SM SCT035 BKN043 OVC080 13/05 A3007 RMK AO2
                 T01310051 =
2014-10-22 11:55 METAR KW99 221555Z AUTO RMK TEMPORAIRILY INOPERATIVE =
2014-10-22 11:35 METAR KW99 221535Z AUTO RMK TEMPORAIRILY INOPERATIVE =
2014-10-22 11:15 METAR KW99 221515Z AUTO RMK TEMPORAIRILY INOPERATIVE =
2014-10-22 10:55 METAR KW99 221455Z AUTO 35006G14KT 320V030 10SM BKN036 OVC070 A3008 RMK AO2 =
2014-10-22 10:15 METAR KW99 221415Z AUTO 33010G16KT 10SM BKN039 OVC046 A3007 RMK AO2 =
2014-10-22 09:55 METAR KW99 221355Z AUTO 33006KT 10SM BKN043 OVC050 A3007 RMK AO2 =
2014-10-22 09:35 METAR KW99 221335Z AUTO 00000KT 10SM SCT031 BKN044 OVC050 A3006 RMK AO2 =
2014-10-22 09:15 METAR KW99 221315Z AUTO 00000KT 10SM BKN033 OVC040 A3006 RMK AO2 =
2014-10-22 08:55 METAR KW99 221255Z AUTO 00000KT 10SM SCT034 OVC041 A3005 RMK AO2 =
2014-10-22 08:35 METAR KW99 221235Z AUTO 00000KT 10SM OVC038 A3005 RMK AO2 =
2014-10-22 08:15 METAR KW99 221215Z AUTO 00000KT 10SM BKN033 OVC040 A3004 RMK AO2 =
2014-10-22 07:55 METAR KW99 221155Z AUTO 00000KT 10SM SCT032 OVC040 A3003 RMK AO2 60004 70019 =
2014-10-22 07:15 METAR KW99 221115Z AUTO 00000KT 10SM OVC029 A3002 RMK AO2 =
2014-10-22 06:55 METAR KW99 221055Z AUTO 00000KT 10SM OVC033 A3002 RMK AO2 =
2014-10-22 06:35 METAR KW99 221035Z AUTO 00000KT 10SM OVC035 A3001 RMK AO2 =
2014-10-22 06:15 METAR KW99 221015Z AUTO 00000KT 10SM OVC039 A3001 RMK AO2 =
2014-10-22 05:55 METAR KW99 220955Z AUTO 00000KT 10SM OVC041 A3000 RMK AO2 P0002 =
2014-10-22 05:35 METAR KW99 220935Z AUTO 00000KT 10SM RA OVC046 A3000 RMK AO2 LTG DSNT E P0002 =
2014-10-22 05:15 METAR KW99 220915Z AUTO 00000KT 10SM -RA OVC044 A3000 RMK AO2 =
2014-10-22 04:55 METAR KW99 220855Z AUTO 00000KT 10SM RA BKN042 BKN048 OVC055 A3000 RMK AO2 P0002
                 60002 =
2014-10-22 04:35 METAR KW99 220835Z AUTO 34005KT 10SM RA BKN043 OVC050 A2999 RMK AO2 =
2014-10-22 04:15 METAR KW99 220815Z AUTO 35004KT 10SM BKN043 OVC049 A2998 RMK AO2 =
2014-10-22 03:55 METAR KW99 220755Z AUTO 01003KT 10SM BKN046 OVC060 A2997 RMK AO2 =
2014-10-22 03:35 METAR KW99 220735Z AUTO 32005KT 10SM -RA BKN060 OVC070 A2997 RMK AO2 =
2014-10-22 02:55 METAR KW99 220655Z AUTO 34003KT 10SM BKN030 BKN045 OVC065 A2998 RMK AO2 LTG DSNT
                 E =
2014-10-22 02:35 METAR KW99 220635Z AUTO 00000KT 10SM BKN030 BKN035 OVC065 A2998 RMK AO2 =
2014-10-22 02:15 METAR KW99 220615Z AUTO 04003KT 10SM SCT030 OVC065 A2998 RMK AO2 =
2014-10-22 01:35 METAR KW99 220535Z AUTO 34004KT 10SM BKN030 OVC065 A2997 RMK AO2 LTG DSNT E =
2014-10-22 01:15 METAR KW99 220515Z AUTO 04004KT 10SM OVC028 A2997 RMK AO2 =
2014-10-22 00:55 METAR KW99 220455Z AUTO 00000KT 10SM OVC028 A2998 RMK AO2 =
2014-10-22 00:35 METAR KW99 220435Z AUTO 00000KT 10SM OVC030 A2999 RMK AO2 =
2014-10-22 00:15 METAR KW99 220415Z AUTO 00000KT 10SM OVC030 A2999 RMK AO2 =
2014-10-21 23:55 METAR KW99 220355Z AUTO 00000KT 10SM OVC030 A3000 RMK AO2 =
2014-10-21 23:35 METAR KW99 220335Z AUTO 00000KT 10SM OVC030 A3000 RMK AO2 =
2014-10-21 23:15 METAR KW99 220315Z AUTO 30003KT 10SM OVC030 A3000 RMK AO2 =
2014-10-21 22:55 METAR KW99 220255Z AUTO 00000KT 7SM OVC032 A2999 RMK AO2 =
2014-10-21 22:35 METAR KW99 220235Z AUTO 29003KT 7SM OVC035 A2999 RMK AO2 =
2014-10-21 22:15 METAR KW99 220215Z AUTO 00000KT 7SM BKN032 OVC039 A2998 RMK AO2 =
2014-10-21 21:55 METAR KW99 220155Z AUTO 00000KT 7SM OVC034 A2998 RMK AO2 =
2014-10-21 21:35 METAR KW99 220135Z AUTO 00000KT 7SM BKN033 OVC048 A2997 RMK AO2 =
2014-10-21 21:15 METAR KW99 220115Z AUTO 00000KT 7SM BKN046 BKN055 OVC065 A2997 RMK AO2 =
2014-10-21 20:55 METAR KW99 220055Z AUTO 00000KT 7SM SCT045 OVC060 A2996 RMK AO2 =
2014-10-21 20:35 METAR KW99 220035Z AUTO 00000KT 5SM HZ SCT043 OVC060 A2996 RMK AO2 =
2014-10-21 20:15 METAR KW99 220015Z AUTO 00000KT 10SM -DZ OVC050 A2995 RMK AO2 =
2014-10-21 19:55 METAR KW99 212355Z AUTO 00000KT 10SM DZ BKN050 OVC075 A2995 RMK AO2 60008 =
2014-10-21 19:35 METAR KW99 212335Z AUTO 00000KT 10SM -RA SCT045 BKN060 OVC095 A2994 RMK AO2 =

Support USWX by starting your Amazon purchase here.